sensor_id;sensor_type;location;lat;lon;timestamp;temperature;humidity
33903;DHT22;20194;50.950;5.346;2023-06-22T00:02:21;24.50;1.00
33903;DHT22;20194;50.950;5.346;2023-06-22T00:04:46;24.50;1.00
33903;DHT22;20194;50.950;5.346;2023-06-22T00:07:12;24.40;1.00
33903;DHT22;20194;50.950;5.346;2023-06-22T00:09:38;24.40;1.00
33903;DHT22;20194;50.950;5.346;2023-06-22T00:12:04;24.30;1.00
33903;DHT22;20194;50.950;5.346;2023-06-22T00:14:32;24.30;1.00
33903;DHT22;20194;50.950;5.346;2023-06-22T00:16:58;24.20;1.00
33903;DHT22;20194;50.950;5.346;2023-06-22T00:19:24;24.20;1.00
33903;DHT22;20194;50.950;5.346;2023-06-22T00:21:50;24.20;1.00
33903;DHT22;20194;50.950;5.346;2023-06-22T00:24:23;24.20;1.00
33903;DHT22;20194;50.950;5.346;2023-06-22T00:26:49;24.20;1.00
33903;DHT22;20194;50.950;5.346;2023-06-22T00:29:15;24.10;1.00
33903;DHT22;20194;50.950;5.346;2023-06-22T00:31:41;24.10;1.00
33903;DHT22;20194;50.950;5.346;2023-06-22T00:34:07;24.10;1.00
33903;DHT22;20194;50.950;5.346;2023-06-22T00:36:34;24.00;1.00
33903;DHT22;20194;50.950;5.346;2023-06-22T00:39:00;24.00;1.00
33903;DHT22;20194;50.950;5.346;2023-06-22T00:41:25;23.90;1.00
33903;DHT22;20194;50.950;5.346;2023-06-22T00:43:54;23.90;1.00
33903;DHT22;20194;50.950;5.346;2023-06-22T00:46:20;23.90;1.00
33903;DHT22;20194;50.950;5.346;2023-06-22T00:48:46;24.00;1.00
33903;DHT22;20194;50.950;5.346;2023-06-22T00:51:12;23.80;1.00
33903;DHT22;20194;50.950;5.346;2023-06-22T00:53:38;23.80;1.00
33903;DHT22;20194;50.950;5.346;2023-06-22T00:56:04;23.70;1.00
33903;DHT22;20194;50.950;5.346;2023-06-22T00:58:31;23.60;1.00
33903;DHT22;20194;50.950;5.346;2023-06-22T01:00:57;23.70;1.00
33903;DHT22;20194;50.950;5.346;2023-06-22T01:03:23;23.80;1.00
33903;DHT22;20194;50.950;5.346;2023-06-22T01:05:49;23.90;1.00
33903;DHT22;20194;50.950;5.346;2023-06-22T01:08:29;23.90;1.00
33903;DHT22;20194;50.950;5.346;2023-06-22T01:11:22;23.80;1.00
33903;DHT22;20194;50.950;5.346;2023-06-22T01:13:59;23.60;1.00
33903;DHT22;20194;50.950;5.346;2023-06-22T01:16:30;23.50;1.00
33903;DHT22;20194;50.950;5.346;2023-06-22T01:18:59;23.50;1.00
33903;DHT22;20194;50.950;5.346;2023-06-22T01:21:28;23.60;1.00
33903;DHT22;20194;50.950;5.346;2023-06-22T01:26:52;23.60;1.00
33903;DHT22;20194;50.950;5.346;2023-06-22T01:29:20;23.70;1.00
33903;DHT22;20194;50.950;5.346;2023-06-22T01:31:48;23.60;1.00
33903;DHT22;20194;50.950;5.346;2023-06-22T01:34:15;23.50;1.00
33903;DHT22;20194;50.950;5.346;2023-06-22T01:36:42;23.30;1.00
33903;DHT22;20194;50.950;5.346;2023-06-22T01:39:09;23.20;1.00
33903;DHT22;20194;50.950;5.346;2023-06-22T01:41:37;23.20;1.00
33903;DHT22;20194;50.950;5.346;2023-06-22T01:44:05;23.20;1.00
33903;DHT22;20194;50.950;5.346;2023-06-22T01:46:34;23.10;1.00
33903;DHT22;20194;50.950;5.346;2023-06-22T01:49:01;23.10;1.00
33903;DHT22;20194;50.950;5.346;2023-06-22T01:51:28;23.20;1.00
33903;DHT22;20194;50.950;5.346;2023-06-22T01:53:54;23.20;1.00
33903;DHT22;20194;50.950;5.346;2023-06-22T01:56:19;23.30;1.00
33903;DHT22;20194;50.950;5.346;2023-06-22T02:01:59;23.30;1.00
33903;DHT22;20194;50.950;5.346;2023-06-22T02:04:37;23.20;1.00
33903;DHT22;20194;50.950;5.346;2023-06-22T02:07:07;23.20;1.00
33903;DHT22;20194;50.950;5.346;2023-06-22T02:09:35;23.20;1.00
33903;DHT22;20194;50.950;5.346;2023-06-22T02:12:04;23.30;1.00
33903;DHT22;20194;50.950;5.346;2023-06-22T02:14:30;23.20;1.00
33903;DHT22;20194;50.950;5.346;2023-06-22T02:16:57;23.30;1.00
33903;DHT22;20194;50.950;5.346;2023-06-22T02:19:24;23.20;1.00
33903;DHT22;20194;50.950;5.346;2023-06-22T02:21:51;23.30;1.00
33903;DHT22;20194;50.950;5.346;2023-06-22T02:24:16;23.40;1.00
33903;DHT22;20194;50.950;5.346;2023-06-22T02:26:43;23.40;1.00
33903;DHT22;20194;50.950;5.346;2023-06-22T02:29:10;23.40;1.00
33903;DHT22;20194;50.950;5.346;2023-06-22T02:31:37;23.40;1.00
33903;DHT22;20194;50.950;5.346;2023-06-22T02:34:02;23.30;1.00
33903;DHT22;20194;50.950;5.346;2023-06-22T02:36:28;23.20;1.00
33903;DHT22;20194;50.950;5.346;2023-06-22T02:38:57;23.20;1.00
33903;DHT22;20194;50.950;5.346;2023-06-22T02:41:24;23.20;1.00
33903;DHT22;20194;50.950;5.346;2023-06-22T02:43:50;23.10;1.00
33903;DHT22;20194;50.950;5.346;2023-06-22T02:46:15;23.10;1.00
33903;DHT22;20194;50.950;5.346;2023-06-22T02:48:44;23.20;1.00
33903;DHT22;20194;50.950;5.346;2023-06-22T02:51:09;23.00;1.00
33903;DHT22;20194;50.950;5.346;2023-06-22T02:53:35;23.00;1.70
33903;DHT22;20194;50.950;5.346;2023-06-22T02:56:04;23.10;2.90
33903;DHT22;20194;50.950;5.346;2023-06-22T02:58:32;22.90;4.10
33903;DHT22;20194;50.950;5.346;2023-06-22T03:01:04;22.90;5.00
33903;DHT22;20194;50.950;5.346;2023-06-22T03:03:31;22.90;6.70
33903;DHT22;20194;50.950;5.346;2023-06-22T03:05:56;22.80;6.90
33903;DHT22;20194;50.950;5.346;2023-06-22T03:08:22;22.50;13.00
33903;DHT22;20194;50.950;5.346;2023-06-22T03:10:48;22.40;14.20
33903;DHT22;20194;50.950;5.346;2023-06-22T03:13:13;22.50;8.40
33903;DHT22;20194;50.950;5.346;2023-06-22T03:15:39;22.60;12.60
33903;DHT22;20194;50.950;5.346;2023-06-22T03:18:05;22.70;12.30
33903;DHT22;20194;50.950;5.346;2023-06-22T03:20:30;22.80;11.30
33903;DHT22;20194;50.950;5.346;2023-06-22T03:22:59;22.70;13.00
33903;DHT22;20194;50.950;5.346;2023-06-22T03:25:25;22.70;12.70
33903;DHT22;20194;50.950;5.346;2023-06-22T03:27:50;22.50;16.00
33903;DHT22;20194;50.950;5.346;2023-06-22T03:30:16;22.40;18.10
33903;DHT22;20194;50.950;5.346;2023-06-22T03:32:42;22.20;20.40
33903;DHT22;20194;50.950;5.346;2023-06-22T03:35:09;22.20;20.80
33903;DHT22;20194;50.950;5.346;2023-06-22T03:37:34;22.10;22.10
33903;DHT22;20194;50.950;5.346;2023-06-22T03:40:00;22.10;22.50
33903;DHT22;20194;50.950;5.346;2023-06-22T03:42:26;22.10;23.30
33903;DHT22;20194;50.950;5.346;2023-06-22T03:44:52;22.20;21.90
33903;DHT22;20194;50.950;5.346;2023-06-22T03:47:18;22.20;22.70
33903;DHT22;20194;50.950;5.346;2023-06-22T03:49:43;22.20;22.80
33903;DHT22;20194;50.950;5.346;2023-06-22T03:52:10;22.10;25.00
33903;DHT22;20194;50.950;5.346;2023-06-22T03:54:36;22.10;24.70
33903;DHT22;20194;50.950;5.346;2023-06-22T03:57:02;22.00;26.20
33903;DHT22;20194;50.950;5.346;2023-06-22T03:59:27;22.00;27.30
33903;DHT22;20194;50.950;5.346;2023-06-22T04:01:53;22.00;26.30
33903;DHT22;20194;50.950;5.346;2023-06-22T04:04:20;22.20;25.10
33903;DHT22;20194;50.950;5.346;2023-06-22T04:06:46;22.30;24.30
33903;DHT22;20194;50.950;5.346;2023-06-22T04:09:11;22.40;23.50
33903;DHT22;20194;50.950;5.346;2023-06-22T04:11:37;22.30;24.20
33903;DHT22;20194;50.950;5.346;2023-06-22T04:14:03;22.20;26.20
33903;DHT22;20194;50.950;5.346;2023-06-22T04:16:29;22.20;26.10
33903;DHT22;20194;50.950;5.346;2023-06-22T04:18:54;22.30;26.00
33903;DHT22;20194;50.950;5.346;2023-06-22T04:21:20;22.30;25.30
33903;DHT22;20194;50.950;5.346;2023-06-22T04:23:46;22.50;23.70
33903;DHT22;20194;50.950;5.346;2023-06-22T04:26:12;22.60;23.30
33903;DHT22;20194;50.950;5.346;2023-06-22T04:28:39;22.80;23.10
33903;DHT22;20194;50.950;5.346;2023-06-22T04:31:05;22.90;22.40
33903;DHT22;20194;50.950;5.346;2023-06-22T04:33:31;22.90;21.80
33903;DHT22;20194;50.950;5.346;2023-06-22T04:35:58;23.10;20.50
33903;DHT22;20194;50.950;5.346;2023-06-22T04:38:26;23.10;20.60
33903;DHT22;20194;50.950;5.346;2023-06-22T04:40:52;23.20;20.40
33903;DHT22;20194;50.950;5.346;2023-06-22T04:43:19;23.20;20.40
33903;DHT22;20194;50.950;5.346;2023-06-22T04:45:44;23.20;22.10
33903;DHT22;20194;50.950;5.346;2023-06-22T04:48:10;23.20;21.60
33903;DHT22;20194;50.950;5.346;2023-06-22T04:50:41;23.30;23.90
33903;DHT22;20194;50.950;5.346;2023-06-22T04:53:07;23.20;26.90
33903;DHT22;20194;50.950;5.346;2023-06-22T04:55:35;23.20;25.10
33903;DHT22;20194;50.950;5.346;2023-06-22T04:58:03;23.20;27.00
33903;DHT22;20194;50.950;5.346;2023-06-22T05:00:30;23.20;27.00
33903;DHT22;20194;50.950;5.346;2023-06-22T05:02:57;23.10;28.60
33903;DHT22;20194;50.950;5.346;2023-06-22T05:05:24;22.90;30.00
33903;DHT22;20194;50.950;5.346;2023-06-22T05:07:51;22.80;35.70
33903;DHT22;20194;50.950;5.346;2023-06-22T05:10:19;22.70;36.60
33903;DHT22;20194;50.950;5.346;2023-06-22T05:12:49;22.70;35.50
33903;DHT22;20194;50.950;5.346;2023-06-22T05:15:17;22.40;36.70
33903;DHT22;20194;50.950;5.346;2023-06-22T05:17:44;22.40;41.00
33903;DHT22;20194;50.950;5.346;2023-06-22T05:20:11;22.30;42.50
33903;DHT22;20194;50.950;5.346;2023-06-22T05:22:40;22.20;46.90
33903;DHT22;20194;50.950;5.346;2023-06-22T05:25:09;22.20;46.90
33903;DHT22;20194;50.950;5.346;2023-06-22T05:27:35;22.20;47.20
33903;DHT22;20194;50.950;5.346;2023-06-22T05:30:06;22.20;46.40
33903;DHT22;20194;50.950;5.346;2023-06-22T05:32:32;22.30;50.00
33903;DHT22;20194;50.950;5.346;2023-06-22T05:34:58;22.40;49.20
33903;DHT22;20194;50.950;5.346;2023-06-22T05:37:23;22.40;50.90
33903;DHT22;20194;50.950;5.346;2023-06-22T05:39:51;22.30;50.00
33903;DHT22;20194;50.950;5.346;2023-06-22T05:42:17;22.40;51.10
33903;DHT22;20194;50.950;5.346;2023-06-22T05:44:42;22.40;51.60
33903;DHT22;20194;50.950;5.346;2023-06-22T05:47:08;22.40;51.80
33903;DHT22;20194;50.950;5.346;2023-06-22T05:49:34;22.30;52.90
33903;DHT22;20194;50.950;5.346;2023-06-22T05:52:00;22.30;53.40
33903;DHT22;20194;50.950;5.346;2023-06-22T05:54:28;22.30;53.90
33903;DHT22;20194;50.950;5.346;2023-06-22T05:56:54;22.40;53.40
33903;DHT22;20194;50.950;5.346;2023-06-22T05:59:19;22.40;52.00
33903;DHT22;20194;50.950;5.346;2023-06-22T06:01:45;22.40;52.70
33903;DHT22;20194;50.950;5.346;2023-06-22T06:04:18;22.50;52.90
33903;DHT22;20194;50.950;5.346;2023-06-22T06:06:44;22.50;53.10
33903;DHT22;20194;50.950;5.346;2023-06-22T06:09:10;22.70;52.70
33903;DHT22;20194;50.950;5.346;2023-06-22T06:11:37;22.70;51.80
33903;DHT22;20194;50.950;5.346;2023-06-22T06:14:03;22.70;51.80
33903;DHT22;20194;50.950;5.346;2023-06-22T06:16:31;22.90;51.70
33903;DHT22;20194;50.950;5.346;2023-06-22T06:18:57;22.80;51.20
33903;DHT22;20194;50.950;5.346;2023-06-22T06:21:24;22.80;50.80
33903;DHT22;20194;50.950;5.346;2023-06-22T06:23:50;22.60;52.70
33903;DHT22;20194;50.950;5.346;2023-06-22T06:26:15;22.60;52.30
33903;DHT22;20194;50.950;5.346;2023-06-22T06:28:48;22.60;53.10
33903;DHT22;20194;50.950;5.346;2023-06-22T06:31:14;22.60;52.80
33903;DHT22;20194;50.950;5.346;2023-06-22T06:33:42;22.40;53.80
33903;DHT22;20194;50.950;5.346;2023-06-22T06:36:08;22.50;50.90
33903;DHT22;20194;50.950;5.346;2023-06-22T06:38:33;22.60;47.20
33903;DHT22;20194;50.950;5.346;2023-06-22T06:40:59;22.60;51.50
33903;DHT22;20194;50.950;5.346;2023-06-22T06:43:25;22.60;50.90
33903;DHT22;20194;50.950;5.346;2023-06-22T06:45:51;22.40;50.10
33903;DHT22;20194;50.950;5.346;2023-06-22T06:48:16;22.10;47.40
33903;DHT22;20194;50.950;5.346;2023-06-22T06:50:43;22.20;50.20
33903;DHT22;20194;50.950;5.346;2023-06-22T06:53:09;22.30;51.40
33903;DHT22;20194;50.950;5.346;2023-06-22T06:55:35;22.20;46.60
33903;DHT22;20194;50.950;5.346;2023-06-22T06:58:01;22.20;50.40
33903;DHT22;20194;50.950;5.346;2023-06-22T07:00:28;22.20;49.90
33903;DHT22;20194;50.950;5.346;2023-06-22T07:02:54;22.20;53.50
33903;DHT22;20194;50.950;5.346;2023-06-22T07:05:19;22.40;51.10
33903;DHT22;20194;50.950;5.346;2023-06-22T07:07:45;22.20;48.40
33903;DHT22;20194;50.950;5.346;2023-06-22T07:10:10;22.30;49.00
33903;DHT22;20194;50.950;5.346;2023-06-22T07:12:37;22.50;41.40
33903;DHT22;20194;50.950;5.346;2023-06-22T07:15:08;22.60;44.30
33903;DHT22;20194;50.950;5.346;2023-06-22T07:17:34;22.70;41.00
33903;DHT22;20194;50.950;5.346;2023-06-22T07:20:01;22.70;42.90
33903;DHT22;20194;50.950;5.346;2023-06-22T07:22:27;22.80;38.00
33903;DHT22;20194;50.950;5.346;2023-06-22T07:24:53;23.00;41.20
33903;DHT22;20194;50.950;5.346;2023-06-22T07:27:18;23.00;42.90
33903;DHT22;20194;50.950;5.346;2023-06-22T07:29:45;23.00;39.70
33903;DHT22;20194;50.950;5.346;2023-06-22T07:32:11;22.90;34.20
33903;DHT22;20194;50.950;5.346;2023-06-22T07:34:37;23.10;39.40
33903;DHT22;20194;50.950;5.346;2023-06-22T07:37:02;23.10;36.50
33903;DHT22;20194;50.950;5.346;2023-06-22T07:39:29;23.20;40.70
33903;DHT22;20194;50.950;5.346;2023-06-22T07:41:55;23.20;39.20
33903;DHT22;20194;50.950;5.346;2023-06-22T07:44:21;23.40;36.90
33903;DHT22;20194;50.950;5.346;2023-06-22T07:46:47;23.30;36.10
33903;DHT22;20194;50.950;5.346;2023-06-22T07:49:14;23.10;30.10
33903;DHT22;20194;50.950;5.346;2023-06-22T07:51:41;23.10;37.80
33903;DHT22;20194;50.950;5.346;2023-06-22T07:54:06;23.20;38.40
33903;DHT22;20194;50.950;5.346;2023-06-22T07:56:32;23.40;37.20
33903;DHT22;20194;50.950;5.346;2023-06-22T07:58:59;23.20;35.80
33903;DHT22;20194;50.950;5.346;2023-06-22T08:01:26;23.20;34.00
33903;DHT22;20194;50.950;5.346;2023-06-22T08:03:51;23.20;34.80
33903;DHT22;20194;50.950;5.346;2023-06-22T08:06:17;23.30;38.20
33903;DHT22;20194;50.950;5.346;2023-06-22T08:08:43;23.10;33.80
33903;DHT22;20194;50.950;5.346;2023-06-22T08:11:09;23.10;37.90
33903;DHT22;20194;50.950;5.346;2023-06-22T08:13:35;23.20;36.00
33903;DHT22;20194;50.950;5.346;2023-06-22T08:16:01;23.40;36.40
33903;DHT22;20194;50.950;5.346;2023-06-22T08:18:26;23.30;37.10
33903;DHT22;20194;50.950;5.346;2023-06-22T08:20:52;23.50;37.70
33903;DHT22;20194;50.950;5.346;2023-06-22T08:23:18;23.50;34.90
33903;DHT22;20194;50.950;5.346;2023-06-22T08:25:44;23.30;36.00
33903;DHT22;20194;50.950;5.346;2023-06-22T08:28:09;23.20;35.10
33903;DHT22;20194;50.950;5.346;2023-06-22T08:30:35;23.30;35.50
33903;DHT22;20194;50.950;5.346;2023-06-22T08:33:01;23.40;36.80
33903;DHT22;20194;50.950;5.346;2023-06-22T08:35:27;23.50;33.10
33903;DHT22;20194;50.950;5.346;2023-06-22T08:37:53;23.70;33.60
33903;DHT22;20194;50.950;5.346;2023-06-22T08:40:20;23.60;33.30
33903;DHT22;20194;50.950;5.346;2023-06-22T08:42:46;23.50;35.90
33903;DHT22;20194;50.950;5.346;2023-06-22T08:45:13;23.60;35.30
33903;DHT22;20194;50.950;5.346;2023-06-22T08:47:42;23.90;29.30
33903;DHT22;20194;50.950;5.346;2023-06-22T08:50:14;24.20;23.60
33903;DHT22;20194;50.950;5.346;2023-06-22T08:52:40;24.30;26.60
33903;DHT22;20194;50.950;5.346;2023-06-22T08:55:09;24.30;24.70
33903;DHT22;20194;50.950;5.346;2023-06-22T08:57:36;24.40;23.30
33903;DHT22;20194;50.950;5.346;2023-06-22T09:00:08;24.20;22.40
33903;DHT22;20194;50.950;5.346;2023-06-22T09:02:46;24.10;27.70
33903;DHT22;20194;50.950;5.346;2023-06-22T09:05:12;24.00;26.60
33903;DHT22;20194;50.950;5.346;2023-06-22T09:07:38;24.00;27.20
33903;DHT22;20194;50.950;5.346;2023-06-22T09:10:05;24.10;28.00
33903;DHT22;20194;50.950;5.346;2023-06-22T09:12:32;24.10;28.30
33903;DHT22;20194;50.950;5.346;2023-06-22T09:14:59;24.30;26.40
33903;DHT22;20194;50.950;5.346;2023-06-22T09:17:26;24.10;28.10
33903;DHT22;20194;50.950;5.346;2023-06-22T09:19:52;24.10;26.00
33903;DHT22;20194;50.950;5.346;2023-06-22T09:22:18;24.10;27.80
33903;DHT22;20194;50.950;5.346;2023-06-22T09:24:43;24.20;29.30
33903;DHT22;20194;50.950;5.346;2023-06-22T09:27:09;24.00;25.10
33903;DHT22;20194;50.950;5.346;2023-06-22T09:29:35;24.10;29.50
33903;DHT22;20194;50.950;5.346;2023-06-22T09:32:01;23.90;26.50
33903;DHT22;20194;50.950;5.346;2023-06-22T09:34:27;24.00;29.70
33903;DHT22;20194;50.950;5.346;2023-06-22T09:36:53;24.10;29.30
33903;DHT22;20194;50.950;5.346;2023-06-22T09:39:20;23.80;30.30
33903;DHT22;20194;50.950;5.346;2023-06-22T09:41:46;23.80;32.40
33903;DHT22;20194;50.950;5.346;2023-06-22T09:44:11;23.90;33.20
33903;DHT22;20194;50.950;5.346;2023-06-22T09:46:37;23.80;32.10
33903;DHT22;20194;50.950;5.346;2023-06-22T09:49:03;23.90;28.40
33903;DHT22;20194;50.950;5.346;2023-06-22T09:51:29;23.90;31.40
33903;DHT22;20194;50.950;5.346;2023-06-22T09:53:55;24.10;27.60
33903;DHT22;20194;50.950;5.346;2023-06-22T09:56:21;24.20;28.20
33903;DHT22;20194;50.950;5.346;2023-06-22T09:58:47;24.40;28.60
33903;DHT22;20194;50.950;5.346;2023-06-22T10:01:13;24.50;34.30
33903;DHT22;20194;50.950;5.346;2023-06-22T10:03:42;24.50;36.10
33903;DHT22;20194;50.950;5.346;2023-06-22T10:06:08;24.60;41.50
33903;DHT22;20194;50.950;5.346;2023-06-22T10:08:35;24.60;42.10
33903;DHT22;20194;50.950;5.346;2023-06-22T10:11:01;24.50;34.70
33903;DHT22;20194;50.950;5.346;2023-06-22T10:13:26;24.60;40.50
33903;DHT22;20194;50.950;5.346;2023-06-22T10:15:52;24.80;41.70
33903;DHT22;20194;50.950;5.346;2023-06-22T10:18:19;24.80;39.00
33903;DHT22;20194;50.950;5.346;2023-06-22T10:20:48;24.80;44.70
33903;DHT22;20194;50.950;5.346;2023-06-22T10:23:14;24.80;48.00
33903;DHT22;20194;50.950;5.346;2023-06-22T10:25:40;24.70;48.50
33903;DHT22;20194;50.950;5.346;2023-06-22T10:28:05;24.70;49.70
33903;DHT22;20194;50.950;5.346;2023-06-22T10:30:31;24.50;51.30
33903;DHT22;20194;50.950;5.346;2023-06-22T10:32:57;24.40;52.00
33903;DHT22;20194;50.950;5.346;2023-06-22T10:35:23;24.40;52.00
33903;DHT22;20194;50.950;5.346;2023-06-22T10:37:49;24.10;54.60
33903;DHT22;20194;50.950;5.346;2023-06-22T10:40:16;24.10;56.20
33903;DHT22;20194;50.950;5.346;2023-06-22T10:42:43;24.10;57.10
33903;DHT22;20194;50.950;5.346;2023-06-22T10:45:09;24.00;58.90
33903;DHT22;20194;50.950;5.346;2023-06-22T10:47:35;23.80;59.00
33903;DHT22;20194;50.950;5.346;2023-06-22T10:50:02;23.60;60.30
33903;DHT22;20194;50.950;5.346;2023-06-22T10:52:27;23.50;63.20
33903;DHT22;20194;50.950;5.346;2023-06-22T10:54:53;23.40;64.20
33903;DHT22;20194;50.950;5.346;2023-06-22T10:57:19;23.40;65.80
33903;DHT22;20194;50.950;5.346;2023-06-22T10:59:45;23.40;67.60
33903;DHT22;20194;50.950;5.346;2023-06-22T11:02:10;23.20;69.90
33903;DHT22;20194;50.950;5.346;2023-06-22T11:04:36;23.10;70.60
33903;DHT22;20194;50.950;5.346;2023-06-22T11:07:02;23.00;71.70
33903;DHT22;20194;50.950;5.346;2023-06-22T11:09:27;22.90;71.30
33903;DHT22;20194;50.950;5.346;2023-06-22T11:11:55;22.90;73.10
33903;DHT22;20194;50.950;5.346;2023-06-22T11:14:21;22.90;73.90
33903;DHT22;20194;50.950;5.346;2023-06-22T11:16:47;22.90;71.40
33903;DHT22;20194;50.950;5.346;2023-06-22T11:19:13;22.70;75.20
33903;DHT22;20194;50.950;5.346;2023-06-22T11:21:39;22.70;77.00
33903;DHT22;20194;50.950;5.346;2023-06-22T11:24:05;22.80;75.00
33903;DHT22;20194;50.950;5.346;2023-06-22T11:26:31;23.00;74.80
33903;DHT22;20194;50.950;5.346;2023-06-22T11:29:00;23.10;74.30
33903;DHT22;20194;50.950;5.346;2023-06-22T11:31:25;23.10;73.40
33903;DHT22;20194;50.950;5.346;2023-06-22T11:33:51;23.20;71.00
33903;DHT22;20194;50.950;5.346;2023-06-22T11:36:17;23.20;74.90
33903;DHT22;20194;50.950;5.346;2023-06-22T11:38:43;23.20;70.10
33903;DHT22;20194;50.950;5.346;2023-06-22T11:41:09;23.10;73.60
33903;DHT22;20194;50.950;5.346;2023-06-22T11:43:36;23.10;75.00
33903;DHT22;20194;50.950;5.346;2023-06-22T11:46:05;23.20;74.50
33903;DHT22;20194;50.950;5.346;2023-06-22T11:48:31;23.10;72.60
33903;DHT22;20194;50.950;5.346;2023-06-22T11:50:57;23.10;70.30
33903;DHT22;20194;50.950;5.346;2023-06-22T11:53:24;23.00;67.80
33903;DHT22;20194;50.950;5.346;2023-06-22T11:55:50;22.80;68.70
33903;DHT22;20194;50.950;5.346;2023-06-22T11:58:16;22.60;71.30
33903;DHT22;20194;50.950;5.346;2023-06-22T12:00:42;22.80;72.60
33903;DHT22;20194;50.950;5.346;2023-06-22T12:03:08;22.70;72.10
33903;DHT22;20194;50.950;5.346;2023-06-22T12:05:34;22.70;67.00
33903;DHT22;20194;50.950;5.346;2023-06-22T12:08:00;22.60;71.70
33903;DHT22;20194;50.950;5.346;2023-06-22T12:10:26;22.50;71.90
33903;DHT22;20194;50.950;5.346;2023-06-22T12:12:54;22.40;72.50
33903;DHT22;20194;50.950;5.346;2023-06-22T12:15:22;22.20;77.20
33903;DHT22;20194;50.950;5.346;2023-06-22T12:17:51;22.20;78.20
33903;DHT22;20194;50.950;5.346;2023-06-22T12:20:17;22.10;78.10
33903;DHT22;20194;50.950;5.346;2023-06-22T12:22:43;22.20;77.00
33903;DHT22;20194;50.950;5.346;2023-06-22T12:25:09;22.10;77.80
33903;DHT22;20194;50.950;5.346;2023-06-22T12:27:38;22.30;76.90
33903;DHT22;20194;50.950;5.346;2023-06-22T12:30:04;22.30;77.50
33903;DHT22;20194;50.950;5.346;2023-06-22T12:32:31;22.10;74.40
33903;DHT22;20194;50.950;5.346;2023-06-22T12:34:56;22.20;77.10
33903;DHT22;20194;50.950;5.346;2023-06-22T12:37:22;22.20;76.30
33903;DHT22;20194;50.950;5.346;2023-06-22T12:39:48;22.00;75.80
33903;DHT22;20194;50.950;5.346;2023-06-22T12:42:15;21.90;79.20
33903;DHT22;20194;50.950;5.346;2023-06-22T12:44:41;22.00;77.80
33903;DHT22;20194;50.950;5.346;2023-06-22T12:47:07;22.00;78.40
33903;DHT22;20194;50.950;5.346;2023-06-22T12:49:37;22.00;75.60
33903;DHT22;20194;50.950;5.346;2023-06-22T12:52:08;22.00;78.00
33903;DHT22;20194;50.950;5.346;2023-06-22T12:54:33;21.90;77.60
33903;DHT22;20194;50.950;5.346;2023-06-22T12:56:59;21.90;74.80
33903;DHT22;20194;50.950;5.346;2023-06-22T12:59:25;21.90;77.70
33903;DHT22;20194;50.950;5.346;2023-06-22T13:01:51;22.00;79.00
33903;DHT22;20194;50.950;5.346;2023-06-22T13:04:16;21.90;76.20
33903;DHT22;20194;50.950;5.346;2023-06-22T13:06:47;21.80;77.70
33903;DHT22;20194;50.950;5.346;2023-06-22T13:09:14;21.70;79.20
33903;DHT22;20194;50.950;5.346;2023-06-22T13:11:41;21.50;81.60
33903;DHT22;20194;50.950;5.346;2023-06-22T13:14:07;21.60;79.10
33903;DHT22;20194;50.950;5.346;2023-06-22T13:16:33;21.70;77.60
33903;DHT22;20194;50.950;5.346;2023-06-22T13:18:58;21.70;79.10
33903;DHT22;20194;50.950;5.346;2023-06-22T13:21:24;21.70;76.50
33903;DHT22;20194;50.950;5.346;2023-06-22T13:23:50;21.50;80.40
33903;DHT22;20194;50.950;5.346;2023-06-22T13:26:15;21.50;80.70
33903;DHT22;20194;50.950;5.346;2023-06-22T13:28:41;21.40;79.50
33903;DHT22;20194;50.950;5.346;2023-06-22T13:31:07;21.40;81.10
33903;DHT22;20194;50.950;5.346;2023-06-22T13:33:32;21.30;83.10
33903;DHT22;20194;50.950;5.346;2023-06-22T13:35:58;21.20;81.10
33903;DHT22;20194;50.950;5.346;2023-06-22T13:38:24;21.20;83.20
33903;DHT22;20194;50.950;5.346;2023-06-22T13:40:50;21.20;82.90
33903;DHT22;20194;50.950;5.346;2023-06-22T13:43:16;21.20;83.70
33903;DHT22;20194;50.950;5.346;2023-06-22T13:45:43;21.00;83.70
33903;DHT22;20194;50.950;5.346;2023-06-22T13:48:09;21.00;84.80
33903;DHT22;20194;50.950;5.346;2023-06-22T13:50:35;21.00;83.40
33903;DHT22;20194;50.950;5.346;2023-06-22T13:53:01;20.80;84.20
33903;DHT22;20194;50.950;5.346;2023-06-22T13:55:27;20.60;86.10
33903;DHT22;20194;50.950;5.346;2023-06-22T13:57:53;20.60;87.40
33903;DHT22;20194;50.950;5.346;2023-06-22T14:00:19;20.60;86.20
33903;DHT22;20194;50.950;5.346;2023-06-22T14:02:45;20.70;86.50
33903;DHT22;20194;50.950;5.346;2023-06-22T14:05:10;20.60;86.60
33903;DHT22;20194;50.950;5.346;2023-06-22T14:07:36;20.60;86.60
33903;DHT22;20194;50.950;5.346;2023-06-22T14:10:03;20.50;88.60
33903;DHT22;20194;50.950;5.346;2023-06-22T14:12:29;20.40;88.70
33903;DHT22;20194;50.950;5.346;2023-06-22T14:14:55;20.50;88.70
33903;DHT22;20194;50.950;5.346;2023-06-22T14:17:20;20.30;88.70
33903;DHT22;20194;50.950;5.346;2023-06-22T14:19:52;20.40;89.40
33903;DHT22;20194;50.950;5.346;2023-06-22T14:22:19;20.30;88.40
33903;DHT22;20194;50.950;5.346;2023-06-22T14:24:45;20.30;88.00
33903;DHT22;20194;50.950;5.346;2023-06-22T14:27:11;20.20;89.50
33903;DHT22;20194;50.950;5.346;2023-06-22T14:29:36;20.20;90.00
33903;DHT22;20194;50.950;5.346;2023-06-22T14:32:03;20.10;89.70
33903;DHT22;20194;50.950;5.346;2023-06-22T14:34:30;20.00;90.10
33903;DHT22;20194;50.950;5.346;2023-06-22T14:36:55;20.00;90.40
33903;DHT22;20194;50.950;5.346;2023-06-22T14:39:21;19.80;90.80
33903;DHT22;20194;50.950;5.346;2023-06-22T14:41:47;19.80;91.00
33903;DHT22;20194;50.950;5.346;2023-06-22T14:44:12;19.80;90.90
33903;DHT22;20194;50.950;5.346;2023-06-22T14:46:38;20.00;90.70
33903;DHT22;20194;50.950;5.346;2023-06-22T14:49:04;20.00;90.30
33903;DHT22;20194;50.950;5.346;2023-06-22T14:51:29;19.90;90.20
33903;DHT22;20194;50.950;5.346;2023-06-22T14:53:55;19.90;90.20
33903;DHT22;20194;50.950;5.346;2023-06-22T14:56:21;19.90;90.00
33903;DHT22;20194;50.950;5.346;2023-06-22T14:58:47;20.00;89.80
33903;DHT22;20194;50.950;5.346;2023-06-22T15:01:13;19.80;90.20
33903;DHT22;20194;50.950;5.346;2023-06-22T15:03:38;19.70;90.30
33903;DHT22;20194;50.950;5.346;2023-06-22T15:06:04;19.70;90.60
33903;DHT22;20194;50.950;5.346;2023-06-22T15:08:30;19.60;90.90
33903;DHT22;20194;50.950;5.346;2023-06-22T15:10:59;19.60;90.80
33903;DHT22;20194;50.950;5.346;2023-06-22T15:13:27;19.70;91.00
33903;DHT22;20194;50.950;5.346;2023-06-22T15:15:54;19.70;90.20
33903;DHT22;20194;50.950;5.346;2023-06-22T15:18:20;19.60;90.60
33903;DHT22;20194;50.950;5.346;2023-06-22T15:20:46;19.50;90.80
33903;DHT22;20194;50.950;5.346;2023-06-22T15:23:13;19.50;91.20
33903;DHT22;20194;50.950;5.346;2023-06-22T15:25:38;19.40;91.40
33903;DHT22;20194;50.950;5.346;2023-06-22T15:28:04;19.50;91.60
33903;DHT22;20194;50.950;5.346;2023-06-22T15:30:30;19.50;91.50
33903;DHT22;20194;50.950;5.346;2023-06-22T15:32:57;19.40;91.40
33903;DHT22;20194;50.950;5.346;2023-06-22T15:35:23;19.50;91.40
33903;DHT22;20194;50.950;5.346;2023-06-22T15:37:49;19.50;91.30